Авиационная погода в Дашогузе

СКИДКИ НА СМАРТФОНЫ!

Регион: 
Погода METAR: 
UTAT 091600Z 35006KT CAVOK 29/12 Q1011 R08/CLRD70 NOSIG
Время наблюдения
2022-08-09T16:00:00Z
Температура C
29.0
Точка росы
12.0
Направление ветра
350
Скорость ветра (узлы)
6
Метео видимость
6.21
Облачность
CAVOK
Нижняя граница облачности (футы)
Явления погоды
Условия полета
VFR

Скидки на навигаторы!